sensor_id;sensor_type;location;lat;lon;timestamp;pressure;altitude;pressure_sealevel;temperature;humidity
68301;BME280;55146;47.468;18.806;2023-04-24T00:01:18;99241.16;;;15.50;49.26
68301;BME280;55146;47.468;18.806;2023-04-24T00:03:44;99235.81;;;15.53;49.18
68301;BME280;55146;47.468;18.806;2023-04-24T00:06:09;99230.78;;;15.29;49.90
68301;BME280;55146;47.468;18.806;2023-04-24T00:08:35;99233.72;;;15.24;50.12
68301;BME280;55146;47.468;18.806;2023-04-24T00:11:01;99229.78;;;15.17;50.45
68301;BME280;55146;47.468;18.806;2023-04-24T00:13:26;99233.34;;;15.26;50.33
68301;BME280;55146;47.468;18.806;2023-04-24T00:15:53;99227.16;;;15.37;50.02
68301;BME280;55146;47.468;18.806;2023-04-24T00:18:19;99240.06;;;15.42;50.04
68301;BME280;55146;47.468;18.806;2023-04-24T00:20:44;99230.13;;;15.24;50.79
68301;BME280;55146;47.468;18.806;2023-04-24T00:23:10;99226.84;;;15.13;51.31
68301;BME280;55146;47.468;18.806;2023-04-24T00:25:35;99229.28;;;15.15;51.31
68301;BME280;55146;47.468;18.806;2023-04-24T00:28:00;99221.28;;;14.96;52.11
68301;BME280;55146;47.468;18.806;2023-04-24T00:30:26;99210.72;;;14.81;52.62
68301;BME280;55146;47.468;18.806;2023-04-24T00:32:51;99208.44;;;14.91;52.37
68301;BME280;55146;47.468;18.806;2023-04-24T00:35:17;99215.91;;;14.82;52.55
68301;BME280;55146;47.468;18.806;2023-04-24T00:37:42;99215.44;;;14.80;52.77
68301;BME280;55146;47.468;18.806;2023-04-24T00:40:08;99206.66;;;14.87;52.46
68301;BME280;55146;47.468;18.806;2023-04-24T00:42:34;99210.53;;;14.69;53.10
68301;BME280;55146;47.468;18.806;2023-04-24T00:45:00;99208.09;;;14.84;52.81
68301;BME280;55146;47.468;18.806;2023-04-24T00:47:26;99215.75;;;14.87;52.71
68301;BME280;55146;47.468;18.806;2023-04-24T00:49:52;99210.22;;;14.79;53.20
68301;BME280;55146;47.468;18.806;2023-04-24T00:52:17;99203.00;;;14.69;53.66
68301;BME280;55146;47.468;18.806;2023-04-24T00:54:44;99206.41;;;14.57;54.12
68301;BME280;55146;47.468;18.806;2023-04-24T00:57:10;99214.94;;;14.78;54.56
68301;BME280;55146;47.468;18.806;2023-04-24T00:59:36;99199.75;;;14.58;56.50
68301;BME280;55146;47.468;18.806;2023-04-24T01:02:02;99198.13;;;14.57;56.48
68301;BME280;55146;47.468;18.806;2023-04-24T01:04:28;99189.41;;;14.33;56.94
68301;BME280;55146;47.468;18.806;2023-04-24T01:06:54;99198.16;;;14.27;57.31
68301;BME280;55146;47.468;18.806;2023-04-24T01:09:22;99189.34;;;14.16;58.03
68301;BME280;55146;47.468;18.806;2023-04-24T01:11:48;99186.44;;;14.21;58.21
68301;BME280;55146;47.468;18.806;2023-04-24T01:14:14;99183.50;;;14.17;58.49
68301;BME280;55146;47.468;18.806;2023-04-24T01:16:40;99183.97;;;14.19;58.35
68301;BME280;55146;47.468;18.806;2023-04-24T01:19:06;99176.19;;;14.13;58.41
68301;BME280;55146;47.468;18.806;2023-04-24T01:21:35;99172.25;;;14.05;59.31
68301;BME280;55146;47.468;18.806;2023-04-24T01:24:02;99164.41;;;14.07;59.40
68301;BME280;55146;47.468;18.806;2023-04-24T01:26:27;99169.69;;;14.17;59.52
68301;BME280;55146;47.468;18.806;2023-04-24T01:28:53;99168.66;;;14.13;59.78
68301;BME280;55146;47.468;18.806;2023-04-24T01:31:18;99156.81;;;14.22;59.83
68301;BME280;55146;47.468;18.806;2023-04-24T01:33:44;99165.94;;;14.22;59.81
68301;BME280;55146;47.468;18.806;2023-04-24T01:36:11;99160.59;;;14.26;59.67
68301;BME280;55146;47.468;18.806;2023-04-24T01:38:36;99152.78;;;14.19;59.70
68301;BME280;55146;47.468;18.806;2023-04-24T01:41:02;99155.34;;;14.15;60.12
68301;BME280;55146;47.468;18.806;2023-04-24T01:43:28;99152.63;;;14.24;60.08
68301;BME280;55146;47.468;18.806;2023-04-24T01:45:53;99142.84;;;14.27;60.34
68301;BME280;55146;47.468;18.806;2023-04-24T01:48:18;99144.16;;;14.29;60.47
68301;BME280;55146;47.468;18.806;2023-04-24T01:50:44;99143.69;;;14.36;60.70
68301;BME280;55146;47.468;18.806;2023-04-24T01:53:09;99146.00;;;14.42;60.83
68301;BME280;55146;47.468;18.806;2023-04-24T01:55:35;99138.19;;;14.44;61.16
68301;BME280;55146;47.468;18.806;2023-04-24T01:58:01;99126.13;;;14.40;61.71
68301;BME280;55146;47.468;18.806;2023-04-24T02:00:27;99134.47;;;14.49;61.79
68301;BME280;55146;47.468;18.806;2023-04-24T02:02:52;99118.31;;;14.51;60.95
68301;BME280;55146;47.468;18.806;2023-04-24T02:05:18;99118.81;;;14.53;61.04
68301;BME280;55146;47.468;18.806;2023-04-24T02:07:43;99115.91;;;14.49;61.61
68301;BME280;55146;47.468;18.806;2023-04-24T02:10:09;99115.38;;;14.39;62.14
68301;BME280;55146;47.468;18.806;2023-04-24T02:12:34;99099.72;;;14.34;62.67
68301;BME280;55146;47.468;18.806;2023-04-24T02:15:00;99108.84;;;14.35;62.72
68301;BME280;55146;47.468;18.806;2023-04-24T02:17:25;99109.31;;;14.28;63.23
68301;BME280;55146;47.468;18.806;2023-04-24T02:19:51;99115.16;;;14.27;63.58
68301;BME280;55146;47.468;18.806;2023-04-24T02:22:16;99113.88;;;14.24;63.72
68301;BME280;55146;47.468;18.806;2023-04-24T02:24:41;99115.19;;;14.35;63.44
68301;BME280;55146;47.468;18.806;2023-04-24T02:27:07;99119.56;;;14.19;64.18
68301;BME280;55146;47.468;18.806;2023-04-24T02:29:32;99118.75;;;14.18;64.28
68301;BME280;55146;47.468;18.806;2023-04-24T02:31:58;99116.81;;;14.19;64.45
68301;BME280;55146;47.468;18.806;2023-04-24T02:34:23;99109.16;;;14.25;64.28
68301;BME280;55146;47.468;18.806;2023-04-24T02:36:49;99111.25;;;14.10;64.84
68301;BME280;55146;47.468;18.806;2023-04-24T02:39:14;99108.13;;;13.95;65.49
68301;BME280;55146;47.468;18.806;2023-04-24T02:41:44;99117.81;;;13.84;65.97
68301;BME280;55146;47.468;18.806;2023-04-24T02:44:09;99110.34;;;13.84;66.10
68301;BME280;55146;47.468;18.806;2023-04-24T02:46:35;99106.28;;;13.82;66.10
68301;BME280;55146;47.468;18.806;2023-04-24T02:49:00;99107.59;;;13.84;66.25
68301;BME280;55146;47.468;18.806;2023-04-24T02:51:26;99094.06;;;13.83;66.49
68301;BME280;55146;47.468;18.806;2023-04-24T02:53:52;99096.06;;;13.82;66.73
68301;BME280;55146;47.468;18.806;2023-04-24T02:56:17;99091.81;;;13.76;67.05
68301;BME280;55146;47.468;18.806;2023-04-24T02:58:42;99098.94;;;13.77;67.16
68301;BME280;55146;47.468;18.806;2023-04-24T03:01:08;99093.94;;;13.88;66.79
68301;BME280;55146;47.468;18.806;2023-04-24T03:03:36;99088.06;;;13.89;66.44
68301;BME280;55146;47.468;18.806;2023-04-24T03:06:01;99083.38;;;13.90;66.58
68301;BME280;55146;47.468;18.806;2023-04-24T03:08:27;99081.91;;;13.92;66.50
68301;BME280;55146;47.468;18.806;2023-04-24T03:10:52;99083.06;;;13.91;66.53
68301;BME280;55146;47.468;18.806;2023-04-24T03:13:17;99082.88;;;13.88;66.37
68301;BME280;55146;47.468;18.806;2023-04-24T03:15:43;99081.25;;;13.87;66.44
68301;BME280;55146;47.468;18.806;2023-04-24T03:18:08;99085.84;;;14.08;65.38
68301;BME280;55146;47.468;18.806;2023-04-24T03:20:33;99085.19;;;14.03;65.37
68301;BME280;55146;47.468;18.806;2023-04-24T03:22:59;99080.47;;;13.95;65.91
68301;BME280;55146;47.468;18.806;2023-04-24T03:25:24;99080.75;;;13.85;65.75
68301;BME280;55146;47.468;18.806;2023-04-24T03:27:50;99071.84;;;13.96;65.29
68301;BME280;55146;47.468;18.806;2023-04-24T03:30:15;99068.44;;;13.99;64.99
68301;BME280;55146;47.468;18.806;2023-04-24T03:32:40;99066.31;;;13.96;64.76
68301;BME280;55146;47.468;18.806;2023-04-24T03:35:07;99070.19;;;13.95;64.51
68301;BME280;55146;47.468;18.806;2023-04-24T03:37:33;99057.56;;;14.11;64.03
68301;BME280;55146;47.468;18.806;2023-04-24T03:39:58;99067.47;;;14.04;64.14
68301;BME280;55146;47.468;18.806;2023-04-24T03:42:24;99059.34;;;14.16;63.40
68301;BME280;55146;47.468;18.806;2023-04-24T03:44:49;99052.66;;;14.08;64.04
68301;BME280;55146;47.468;18.806;2023-04-24T03:47:14;99049.09;;;13.99;64.80
68301;BME280;55146;47.468;18.806;2023-04-24T03:49:40;99047.13;;;14.00;66.17
68301;BME280;55146;47.468;18.806;2023-04-24T03:52:05;99038.69;;;14.05;67.21
68301;BME280;55146;47.468;18.806;2023-04-24T03:54:30;99041.41;;;13.88;68.53
68301;BME280;55146;47.468;18.806;2023-04-24T03:56:56;99047.06;;;13.74;69.40
68301;BME280;55146;47.468;18.806;2023-04-24T03:59:21;99050.81;;;13.78;69.08
68301;BME280;55146;47.468;18.806;2023-04-24T04:01:46;99051.62;;;13.78;68.31
68301;BME280;55146;47.468;18.806;2023-04-24T04:04:12;99060.44;;;13.81;66.61
68301;BME280;55146;47.468;18.806;2023-04-24T04:06:37;99058.94;;;13.74;67.45
68301;BME280;55146;47.468;18.806;2023-04-24T04:09:03;99051.62;;;13.70;67.90
68301;BME280;55146;47.468;18.806;2023-04-24T04:11:29;99058.38;;;13.55;68.62
68301;BME280;55146;47.468;18.806;2023-04-24T04:13:54;99075.50;;;13.66;68.33
68301;BME280;55146;47.468;18.806;2023-04-24T04:16:20;99079.06;;;13.66;68.62
68301;BME280;55146;47.468;18.806;2023-04-24T04:18:45;99085.25;;;13.72;68.33
68301;BME280;55146;47.468;18.806;2023-04-24T04:21:11;99087.31;;;13.58;68.85
68301;BME280;55146;47.468;18.806;2023-04-24T04:23:36;99079.63;;;13.46;69.47
68301;BME280;55146;47.468;18.806;2023-04-24T04:26:03;99067.22;;;13.35;69.93
68301;BME280;55146;47.468;18.806;2023-04-24T04:28:29;99058.78;;;13.31;70.04
68301;BME280;55146;47.468;18.806;2023-04-24T04:30:56;99050.50;;;13.31;69.85
68301;BME280;55146;47.468;18.806;2023-04-24T04:33:23;99060.75;;;13.40;69.97
68301;BME280;55146;47.468;18.806;2023-04-24T04:35:48;99060.28;;;13.38;69.60
68301;BME280;55146;47.468;18.806;2023-04-24T04:38:15;99063.06;;;13.46;69.51
68301;BME280;55146;47.468;18.806;2023-04-24T04:40:42;99060.12;;;13.43;68.61
68301;BME280;55146;47.468;18.806;2023-04-24T04:43:07;99055.78;;;13.50;68.40
68301;BME280;55146;47.468;18.806;2023-04-24T04:45:33;99058.19;;;13.52;68.70
68301;BME280;55146;47.468;18.806;2023-04-24T04:47:59;99073.34;;;13.54;68.81
68301;BME280;55146;47.468;18.806;2023-04-24T04:50:28;99067.44;;;13.47;68.79
68301;BME280;55146;47.468;18.806;2023-04-24T04:52:54;99065.69;;;13.51;69.11
68301;BME280;55146;47.468;18.806;2023-04-24T04:55:19;99057.50;;;13.38;69.64
68301;BME280;55146;47.468;18.806;2023-04-24T04:57:46;99059.00;;;13.44;69.14
68301;BME280;55146;47.468;18.806;2023-04-24T05:00:12;99061.09;;;13.38;69.58
68301;BME280;55146;47.468;18.806;2023-04-24T05:02:40;99050.25;;;13.50;69.63
68301;BME280;55146;47.468;18.806;2023-04-24T05:05:06;99059.66;;;13.49;69.67
68301;BME280;55146;47.468;18.806;2023-04-24T05:07:32;99049.59;;;13.53;70.09
68301;BME280;55146;47.468;18.806;2023-04-24T05:09:57;99055.78;;;13.50;69.21
68301;BME280;55146;47.468;18.806;2023-04-24T05:12:23;99050.91;;;13.56;68.88
68301;BME280;55146;47.468;18.806;2023-04-24T05:14:48;99060.34;;;13.55;69.13
68301;BME280;55146;47.468;18.806;2023-04-24T05:17:14;99049.78;;;13.57;69.50
68301;BME280;55146;47.468;18.806;2023-04-24T05:19:40;99054.00;;;13.54;69.42
68301;BME280;55146;47.468;18.806;2023-04-24T05:22:05;99061.31;;;13.50;70.21
68301;BME280;55146;47.468;18.806;2023-04-24T05:24:33;99064.53;;;13.44;70.67
68301;BME280;55146;47.468;18.806;2023-04-24T05:26:59;99057.88;;;13.45;70.72
68301;BME280;55146;47.468;18.806;2023-04-24T05:29:24;99060.16;;;13.51;70.43
68301;BME280;55146;47.468;18.806;2023-04-24T05:31:51;99061.31;;;13.59;70.24
68301;BME280;55146;47.468;18.806;2023-04-24T05:34:16;99061.03;;;13.69;69.99
68301;BME280;55146;47.468;18.806;2023-04-24T05:36:42;99066.59;;;13.77;69.86
68301;BME280;55146;47.468;18.806;2023-04-24T05:39:08;99067.75;;;13.85;69.64
68301;BME280;55146;47.468;18.806;2023-04-24T05:41:33;99057.34;;;13.91;69.30
68301;BME280;55146;47.468;18.806;2023-04-24T05:43:59;99065.84;;;13.94;69.10
68301;BME280;55146;47.468;18.806;2023-04-24T05:46:24;99069.38;;;13.86;69.66
68301;BME280;55146;47.468;18.806;2023-04-24T05:48:50;99076.19;;;13.89;69.28
68301;BME280;55146;47.468;18.806;2023-04-24T05:51:15;99066.81;;;13.98;68.41
68301;BME280;55146;47.468;18.806;2023-04-24T05:53:40;99074.62;;;14.05;68.22
68301;BME280;55146;47.468;18.806;2023-04-24T05:56:06;99071.72;;;14.10;67.90
68301;BME280;55146;47.468;18.806;2023-04-24T05:58:31;99069.41;;;14.03;68.27
68301;BME280;55146;47.468;18.806;2023-04-24T06:00:56;99078.22;;;14.05;68.22
68301;BME280;55146;47.468;18.806;2023-04-24T06:03:24;99076.59;;;14.04;69.15
68301;BME280;55146;47.468;18.806;2023-04-24T06:05:50;99084.38;;;13.94;69.83
68301;BME280;55146;47.468;18.806;2023-04-24T06:08:16;99076.00;;;13.76;70.09
68301;BME280;55146;47.468;18.806;2023-04-24T06:10:41;99077.84;;;13.81;69.91
68301;BME280;55146;47.468;18.806;2023-04-24T06:13:07;99070.81;;;13.84;70.08
68301;BME280;55146;47.468;18.806;2023-04-24T06:15:33;99075.56;;;13.92;69.92
68301;BME280;55146;47.468;18.806;2023-04-24T06:17:58;99073.75;;;13.78;70.43
68301;BME280;55146;47.468;18.806;2023-04-24T06:20:24;99073.78;;;13.96;69.64
68301;BME280;55146;47.468;18.806;2023-04-24T06:22:50;99071.53;;;13.98;69.65
68301;BME280;55146;47.468;18.806;2023-04-24T06:25:15;99074.28;;;13.98;70.22
68301;BME280;55146;47.468;18.806;2023-04-24T06:27:41;99074.41;;;13.75;70.72
68301;BME280;55146;47.468;18.806;2023-04-24T06:30:07;99079.81;;;13.98;70.89
68301;BME280;55146;47.468;18.806;2023-04-24T06:32:32;99072.38;;;14.07;69.95
68301;BME280;55146;47.468;18.806;2023-04-24T06:34:57;99072.53;;;14.28;69.62
68301;BME280;55146;47.468;18.806;2023-04-24T06:37:23;99070.63;;;14.37;68.75
68301;BME280;55146;47.468;18.806;2023-04-24T06:39:48;99076.13;;;14.28;68.80
68301;BME280;55146;47.468;18.806;2023-04-24T06:42:14;99066.53;;;14.34;68.87
68301;BME280;55146;47.468;18.806;2023-04-24T06:44:40;99066.41;;;14.48;69.11
68301;BME280;55146;47.468;18.806;2023-04-24T06:47:11;99068.00;;;14.83;68.70
68301;BME280;55146;47.468;18.806;2023-04-24T06:49:39;99070.59;;;15.06;66.74
68301;BME280;55146;47.468;18.806;2023-04-24T06:52:05;99065.97;;;15.18;66.05
68301;BME280;55146;47.468;18.806;2023-04-24T06:54:30;99069.78;;;15.05;66.20
68301;BME280;55146;47.468;18.806;2023-04-24T06:56:56;99062.94;;;14.94;66.47
68301;BME280;55146;47.468;18.806;2023-04-24T06:59:23;99051.91;;;14.85;66.79
68301;BME280;55146;47.468;18.806;2023-04-24T07:01:49;99070.59;;;14.88;66.39
68301;BME280;55146;47.468;18.806;2023-04-24T07:04:14;99057.13;;;14.87;66.86
68301;BME280;55146;47.468;18.806;2023-04-24T07:06:39;99065.56;;;14.90;66.77
68301;BME280;55146;47.468;18.806;2023-04-24T07:09:05;99051.72;;;14.82;67.26
68301;BME280;55146;47.468;18.806;2023-04-24T07:11:30;99061.66;;;14.83;67.57
68301;BME280;55146;47.468;18.806;2023-04-24T07:13:56;99061.63;;;15.00;67.04
68301;BME280;55146;47.468;18.806;2023-04-24T07:16:22;99057.56;;;14.89;67.61
68301;BME280;55146;47.468;18.806;2023-04-24T07:18:47;99057.13;;;14.87;68.19
68301;BME280;55146;47.468;18.806;2023-04-24T07:21:12;99063.28;;;14.92;68.66
68301;BME280;55146;47.468;18.806;2023-04-24T07:23:38;99064.06;;;15.10;68.42
68301;BME280;55146;47.468;18.806;2023-04-24T07:26:04;99055.81;;;15.39;67.89
68301;BME280;55146;47.468;18.806;2023-04-24T07:28:29;99061.28;;;15.65;67.15
68301;BME280;55146;47.468;18.806;2023-04-24T07:30:57;99060.72;;;16.10;66.13
68301;BME280;55146;47.468;18.806;2023-04-24T07:33:22;99063.13;;;16.41;65.13
68301;BME280;55146;47.468;18.806;2023-04-24T07:35:48;99059.53;;;16.61;64.44
68301;BME280;55146;47.468;18.806;2023-04-24T07:38:13;99067.59;;;16.54;64.32
68301;BME280;55146;47.468;18.806;2023-04-24T07:40:39;99060.72;;;16.60;64.63
68301;BME280;55146;47.468;18.806;2023-04-24T07:43:04;99066.09;;;16.56;64.46
68301;BME280;55146;47.468;18.806;2023-04-24T07:45:30;99061.81;;;16.38;64.50
68301;BME280;55146;47.468;18.806;2023-04-24T07:47:56;99055.28;;;16.64;64.09
68301;BME280;55146;47.468;18.806;2023-04-24T07:50:21;99049.09;;;16.79;64.28
68301;BME280;55146;47.468;18.806;2023-04-24T07:52:47;99059.09;;;16.92;63.62
68301;BME280;55146;47.468;18.806;2023-04-24T07:55:13;99065.75;;;16.79;62.96
68301;BME280;55146;47.468;18.806;2023-04-24T07:57:38;99060.34;;;16.82;63.79
68301;BME280;55146;47.468;18.806;2023-04-24T08:00:04;99064.69;;;16.71;64.92
68301;BME280;55146;47.468;18.806;2023-04-24T08:02:30;99062.38;;;16.52;66.30
68301;BME280;55146;47.468;18.806;2023-04-24T08:04:56;99064.28;;;16.40;66.58
68301;BME280;55146;47.468;18.806;2023-04-24T08:07:21;99061.09;;;16.29;66.18
68301;BME280;55146;47.468;18.806;2023-04-24T08:09:47;99063.59;;;16.22;66.60
68301;BME280;55146;47.468;18.806;2023-04-24T08:12:12;99053.47;;;15.97;67.63
68301;BME280;55146;47.468;18.806;2023-04-24T08:14:37;99056.00;;;16.10;67.26
68301;BME280;55146;47.468;18.806;2023-04-24T08:17:03;99060.66;;;16.18;66.33
68301;BME280;55146;47.468;18.806;2023-04-24T08:19:28;99062.13;;;15.95;66.97
68301;BME280;55146;47.468;18.806;2023-04-24T08:21:54;99063.31;;;16.15;67.06
68301;BME280;55146;47.468;18.806;2023-04-24T08:24:19;99057.66;;;16.24;65.79
68301;BME280;55146;47.468;18.806;2023-04-24T08:26:45;99057.66;;;16.24;66.53
68301;BME280;55146;47.468;18.806;2023-04-24T08:29:10;99053.38;;;16.35;65.89
68301;BME280;55146;47.468;18.806;2023-04-24T08:31:35;99058.09;;;16.34;65.33
68301;BME280;55146;47.468;18.806;2023-04-24T08:34:01;99059.78;;;16.27;65.05
68301;BME280;55146;47.468;18.806;2023-04-24T08:36:26;99059.03;;;16.38;65.22
68301;BME280;55146;47.468;18.806;2023-04-24T08:38:52;99065.59;;;16.54;64.54
68301;BME280;55146;47.468;18.806;2023-04-24T08:41:18;99057.09;;;16.80;63.53
68301;BME280;55146;47.468;18.806;2023-04-24T08:43:46;99064.34;;;16.73;64.21
68301;BME280;55146;47.468;18.806;2023-04-24T08:46:12;99057.13;;;16.92;63.46
68301;BME280;55146;47.468;18.806;2023-04-24T08:48:39;99060.34;;;17.15;63.00
68301;BME280;55146;47.468;18.806;2023-04-24T08:51:07;99057.22;;;17.17;62.57
68301;BME280;55146;47.468;18.806;2023-04-24T08:53:33;99055.75;;;17.44;60.37
68301;BME280;55146;47.468;18.806;2023-04-24T08:55:59;99059.44;;;17.35;60.44
68301;BME280;55146;47.468;18.806;2023-04-24T08:58:27;99063.63;;;17.42;60.08
68301;BME280;55146;47.468;18.806;2023-04-24T09:00:56;99058.44;;;17.40;60.17
68301;BME280;55146;47.468;18.806;2023-04-24T09:03:22;99058.59;;;17.68;59.90
68301;BME280;55146;47.468;18.806;2023-04-24T09:05:49;99052.69;;;18.06;58.64
68301;BME280;55146;47.468;18.806;2023-04-24T09:08:17;99055.53;;;18.34;57.14
68301;BME280;55146;47.468;18.806;2023-04-24T09:10:43;99056.91;;;18.40;56.92
68301;BME280;55146;47.468;18.806;2023-04-24T09:13:09;99057.97;;;18.35;57.73
68301;BME280;55146;47.468;18.806;2023-04-24T09:15:36;99052.56;;;18.27;58.83
68301;BME280;55146;47.468;18.806;2023-04-24T09:18:02;99047.06;;;18.42;57.52
68301;BME280;55146;47.468;18.806;2023-04-24T09:20:27;99048.34;;;18.33;58.23
68301;BME280;55146;47.468;18.806;2023-04-24T09:22:54;99043.22;;;18.35;58.62
68301;BME280;55146;47.468;18.806;2023-04-24T09:25:20;99057.63;;;18.37;58.48
68301;BME280;55146;47.468;18.806;2023-04-24T09:27:46;99060.69;;;18.07;58.98
68301;BME280;55146;47.468;18.806;2023-04-24T09:30:12;99043.19;;;17.95;59.81
68301;BME280;55146;47.468;18.806;2023-04-24T09:32:38;99048.03;;;18.10;60.04
68301;BME280;55146;47.468;18.806;2023-04-24T09:35:16;99047.59;;;18.08;60.22
68301;BME280;55146;47.468;18.806;2023-04-24T09:37:44;99043.38;;;18.26;59.28
68301;BME280;55146;47.468;18.806;2023-04-24T09:40:14;99046.25;;;18.30;58.84
68301;BME280;55146;47.468;18.806;2023-04-24T09:42:45;99044.38;;;18.34;58.35
68301;BME280;55146;47.468;18.806;2023-04-24T09:45:11;99042.16;;;18.39;58.51
68301;BME280;55146;47.468;18.806;2023-04-24T09:47:38;99029.44;;;18.38;58.98
68301;BME280;55146;47.468;18.806;2023-04-24T09:50:10;99031.78;;;18.64;58.94
68301;BME280;55146;47.468;18.806;2023-04-24T09:52:40;99030.03;;;18.99;58.07
68301;BME280;55146;47.468;18.806;2023-04-24T09:55:11;99025.13;;;19.24;56.91
68301;BME280;55146;47.468;18.806;2023-04-24T09:57:47;99028.50;;;19.46;56.00
68301;BME280;55146;47.468;18.806;2023-04-24T10:00:13;99028.47;;;19.30;56.51
68301;BME280;55146;47.468;18.806;2023-04-24T10:02:38;99029.16;;;19.11;56.47
68301;BME280;55146;47.468;18.806;2023-04-24T10:05:04;99033.75;;;19.19;57.25
68301;BME280;55146;47.468;18.806;2023-04-24T10:07:32;99032.34;;;18.97;57.35
68301;BME280;55146;47.468;18.806;2023-04-24T10:09:58;99024.47;;;18.99;57.26
68301;BME280;55146;47.468;18.806;2023-04-24T10:12:25;99033.22;;;18.86;57.66
68301;BME280;55146;47.468;18.806;2023-04-24T10:14:51;99024.66;;;18.79;58.01
68301;BME280;55146;47.468;18.806;2023-04-24T10:17:17;99016.16;;;18.59;58.06
68301;BME280;55146;47.468;18.806;2023-04-24T10:19:43;99033.63;;;18.32;58.89
68301;BME280;55146;47.468;18.806;2023-04-24T10:22:10;99027.84;;;18.13;59.23
68301;BME280;55146;47.468;18.806;2023-04-24T10:24:35;99023.13;;;18.01;60.14
68301;BME280;55146;47.468;18.806;2023-04-24T10:27:03;99016.63;;;17.85;60.65
68301;BME280;55146;47.468;18.806;2023-04-24T10:29:31;99011.06;;;17.73;61.12
68301;BME280;55146;47.468;18.806;2023-04-24T10:31:56;99025.13;;;17.76;61.42
68301;BME280;55146;47.468;18.806;2023-04-24T10:34:23;99010.25;;;17.85;60.97
68301;BME280;55146;47.468;18.806;2023-04-24T10:36:51;99015.81;;;17.85;62.31
68301;BME280;55146;47.468;18.806;2023-04-24T10:39:18;99013.75;;;17.82;62.63
68301;BME280;55146;47.468;18.806;2023-04-24T10:41:44;99022.53;;;17.71;63.47
68301;BME280;55146;47.468;18.806;2023-04-24T10:44:15;99016.53;;;17.82;63.08
68301;BME280;55146;47.468;18.806;2023-04-24T10:46:53;99018.16;;;17.95;62.11
68301;BME280;55146;47.468;18.806;2023-04-24T10:49:28;99016.75;;;18.01;61.70
68301;BME280;55146;47.468;18.806;2023-04-24T10:51:54;99024.50;;;18.19;59.94
68301;BME280;55146;47.468;18.806;2023-04-24T10:54:27;99013.78;;;18.22;59.68
68301;BME280;55146;47.468;18.806;2023-04-24T10:57:25;99010.66;;;18.23;59.73
68301;BME280;55146;47.468;18.806;2023-04-24T10:59:39;99009.22;;;18.41;58.21
68301;BME280;55146;47.468;18.806;2023-04-24T11:02:07;99002.03;;;18.40;57.38
68301;BME280;55146;47.468;18.806;2023-04-24T11:04:33;99003.47;;;18.22;56.79
68301;BME280;55146;47.468;18.806;2023-04-24T11:07:00;99003.59;;;18.26;58.02
68301;BME280;55146;47.468;18.806;2023-04-24T11:09:27;99001.34;;;18.43;57.36
68301;BME280;55146;47.468;18.806;2023-04-24T11:12:11;99000.19;;;18.72;56.64
68301;BME280;55146;47.468;18.806;2023-04-24T11:17:37;98999.38;;;18.99;54.17
68301;BME280;55146;47.468;18.806;2023-04-24T11:20:10;98987.87;;;19.17;54.01
68301;BME280;55146;47.468;18.806;2023-04-24T11:22:38;98988.78;;;19.36;53.52
68301;BME280;55146;47.468;18.806;2023-04-24T11:25:05;98986.66;;;19.61;51.44
68301;BME280;55146;47.468;18.806;2023-04-24T11:27:39;98986.78;;;19.84;50.69
68301;BME280;55146;47.468;18.806;2023-04-24T11:30:05;98990.44;;;20.04;49.48
68301;BME280;55146;47.468;18.806;2023-04-24T11:32:36;98992.25;;;19.96;49.06
68301;BME280;55146;47.468;18.806;2023-04-24T11:35:18;98988.41;;;19.85;50.02
68301;BME280;55146;47.468;18.806;2023-04-24T11:37:45;98992.66;;;19.79;50.03
68301;BME280;55146;47.468;18.806;2023-04-24T11:40:13;98981.25;;;19.68;50.31
68301;BME280;55146;47.468;18.806;2023-04-24T11:42:45;98977.13;;;19.62;50.65
68301;BME280;55146;47.468;18.806;2023-04-24T11:45:14;98976.66;;;19.60;50.44
68301;BME280;55146;47.468;18.806;2023-04-24T11:47:40;98979.63;;;19.52;52.88
68301;BME280;55146;47.468;18.806;2023-04-24T11:50:08;98981.97;;;19.50;53.77
68301;BME280;55146;47.468;18.806;2023-04-24T11:52:37;98986.87;;;19.40;53.94
68301;BME280;55146;47.468;18.806;2023-04-24T11:55:03;98984.00;;;19.21;54.97
68301;BME280;55146;47.468;18.806;2023-04-24T11:57:29;98975.19;;;19.35;54.66
68301;BME280;55146;47.468;18.806;2023-04-24T11:59:59;98977.53;;;19.33;57.27
68301;BME280;55146;47.468;18.806;2023-04-24T12:02:26;98966.19;;;19.42;56.30
68301;BME280;55146;47.468;18.806;2023-04-24T12:04:53;98971.31;;;19.39;55.05
68301;BME280;55146;47.468;18.806;2023-04-24T12:07:19;98969.53;;;19.31;55.44
68301;BME280;55146;47.468;18.806;2023-04-24T12:12:15;98965.03;;;19.27;53.70
68301;BME280;55146;47.468;18.806;2023-04-24T12:17:10;98965.63;;;18.89;53.77
68301;BME280;55146;47.468;18.806;2023-04-24T12:19:36;98962.66;;;18.97;53.95
68301;BME280;55146;47.468;18.806;2023-04-24T12:22:05;98963.22;;;19.03;53.75
68301;BME280;55146;47.468;18.806;2023-04-24T12:24:31;98960.34;;;19.15;54.54
68301;BME280;55146;47.468;18.806;2023-04-24T12:26:57;98958.09;;;19.21;54.27
68301;BME280;55146;47.468;18.806;2023-04-24T12:29:24;98957.66;;;19.19;54.41
68301;BME280;55146;47.468;18.806;2023-04-24T12:31:50;98954.34;;;19.13;53.62
68301;BME280;55146;47.468;18.806;2023-04-24T12:34:20;98948.66;;;19.10;54.04
68301;BME280;55146;47.468;18.806;2023-04-24T12:36:47;98946.41;;;19.15;53.92
68301;BME280;55146;47.468;18.806;2023-04-24T12:39:19;98955.50;;;19.12;54.34
68301;BME280;55146;47.468;18.806;2023-04-24T12:41:57;98945.59;;;19.15;54.49
68301;BME280;55146;47.468;18.806;2023-04-24T12:44:34;98946.56;;;18.91;55.27
68301;BME280;55146;47.468;18.806;2023-04-24T12:47:02;98948.16;;;18.76;56.38
68301;BME280;55146;47.468;18.806;2023-04-24T12:49:30;98936.56;;;18.74;56.17
68301;BME280;55146;47.468;18.806;2023-04-24T12:51:55;98938.28;;;18.51;56.27
68301;BME280;55146;47.468;18.806;2023-04-24T12:54:22;98937.31;;;18.31;56.33